sensor_id;sensor_type;location;lat;lon;timestamp;P1;durP1;ratioP1;P2;durP2;ratioP2
56297;SDS011;42208;6.376;-10.782;2022-11-20T00:01:24;47.33;;;22.98;;
56297;SDS011;42208;6.376;-10.782;2022-11-20T00:03:54;51.78;;;23.25;;
56297;SDS011;42208;6.376;-10.782;2022-11-20T00:06:23;43.78;;;23.35;;
56297;SDS011;42208;6.376;-10.782;2022-11-20T00:08:54;53.85;;;24.95;;
56297;SDS011;42208;6.376;-10.782;2022-11-20T00:11:24;60.42;;;30.10;;
56297;SDS011;42208;6.376;-10.782;2022-11-20T00:13:55;65.70;;;30.38;;
56297;SDS011;42208;6.376;-10.782;2022-11-20T00:16:26;71.75;;;30.15;;
56297;SDS011;42208;6.376;-10.782;2022-11-20T00:18:55;57.05;;;28.70;;
56297;SDS011;42208;6.376;-10.782;2022-11-20T00:21:24;62.13;;;26.27;;
56297;SDS011;42208;6.376;-10.782;2022-11-20T00:23:54;49.65;;;24.25;;
56297;SDS011;42208;6.376;-10.782;2022-11-20T00:26:24;39.10;;;22.75;;
56297;SDS011;42208;6.376;-10.782;2022-11-20T00:28:55;47.15;;;23.80;;
56297;SDS011;42208;6.376;-10.782;2022-11-20T00:31:26;46.95;;;24.27;;
56297;SDS011;42208;6.376;-10.782;2022-11-20T00:33:54;50.88;;;23.40;;
56297;SDS011;42208;6.376;-10.782;2022-11-20T00:36:24;40.70;;;23.58;;
56297;SDS011;42208;6.376;-10.782;2022-11-20T00:38:54;49.78;;;25.13;;
56297;SDS011;42208;6.376;-10.782;2022-11-20T00:41:25;53.42;;;26.42;;
56297;SDS011;42208;6.376;-10.782;2022-11-20T00:43:54;64.88;;;23.83;;
56297;SDS011;42208;6.376;-10.782;2022-11-20T00:46:24;58.00;;;24.00;;
56297;SDS011;42208;6.376;-10.782;2022-11-20T00:48:54;49.55;;;24.33;;
56297;SDS011;42208;6.376;-10.782;2022-11-20T00:51:23;48.20;;;23.42;;
56297;SDS011;42208;6.376;-10.782;2022-11-20T00:53:57;64.53;;;23.65;;
56297;SDS011;42208;6.376;-10.782;2022-11-20T00:56:26;59.28;;;23.42;;
56297;SDS011;42208;6.376;-10.782;2022-11-20T00:58:54;60.53;;;24.20;;
56297;SDS011;42208;6.376;-10.782;2022-11-20T01:01:23;53.63;;;24.42;;
56297;SDS011;42208;6.376;-10.782;2022-11-20T01:03:54;47.15;;;23.88;;
56297;SDS011;42208;6.376;-10.782;2022-11-20T01:06:24;59.17;;;23.92;;
56297;SDS011;42208;6.376;-10.782;2022-11-20T01:09:05;66.93;;;24.92;;
56297;SDS011;42208;6.376;-10.782;2022-11-20T01:11:42;49.55;;;24.05;;
56297;SDS011;42208;6.376;-10.782;2022-11-20T01:14:13;58.35;;;24.58;;
56297;SDS011;42208;6.376;-10.782;2022-11-20T01:16:44;49.88;;;24.52;;
56297;SDS011;42208;6.376;-10.782;2022-11-20T01:19:16;46.88;;;22.80;;
56297;SDS011;42208;6.376;-10.782;2022-11-20T01:21:48;60.20;;;23.80;;
56297;SDS011;42208;6.376;-10.782;2022-11-20T01:24:19;48.47;;;23.48;;
56297;SDS011;42208;6.376;-10.782;2022-11-20T01:26:49;50.63;;;21.88;;
56297;SDS011;42208;6.376;-10.782;2022-11-20T01:29:19;44.97;;;20.90;;
56297;SDS011;42208;6.376;-10.782;2022-11-20T01:31:50;37.78;;;18.25;;
56297;SDS011;42208;6.376;-10.782;2022-11-20T01:34:19;46.25;;;17.10;;
56297;SDS011;42208;6.376;-10.782;2022-11-20T01:36:48;35.25;;;15.40;;
56297;SDS011;42208;6.376;-10.782;2022-11-20T01:39:18;24.90;;;13.20;;
56297;SDS011;42208;6.376;-10.782;2022-11-20T01:41:49;16.98;;;8.60;;
56297;SDS011;42208;6.376;-10.782;2022-11-20T01:44:20;15.80;;;7.22;;
56297;SDS011;42208;6.376;-10.782;2022-11-20T01:47:09;17.73;;;7.57;;
56297;SDS011;42208;6.376;-10.782;2022-11-20T01:49:42;19.20;;;7.55;;
56297;SDS011;42208;6.376;-10.782;2022-11-20T01:55:05;19.88;;;8.63;;
56297;SDS011;42208;6.376;-10.782;2022-11-20T01:57:36;17.83;;;8.45;;
56297;SDS011;42208;6.376;-10.782;2022-11-20T02:00:10;20.08;;;8.82;;
56297;SDS011;42208;6.376;-10.782;2022-11-20T02:02:43;18.70;;;9.63;;
56297;SDS011;42208;6.376;-10.782;2022-11-20T02:05:22;17.25;;;8.90;;
56297;SDS011;42208;6.376;-10.782;2022-11-20T02:07:55;24.67;;;9.35;;
56297;SDS011;42208;6.376;-10.782;2022-11-20T02:10:26;20.07;;;9.80;;
56297;SDS011;42208;6.376;-10.782;2022-11-20T02:12:55;20.80;;;9.35;;
56297;SDS011;42208;6.376;-10.782;2022-11-20T02:15:24;27.83;;;10.70;;
56297;SDS011;42208;6.376;-10.782;2022-11-20T02:17:56;21.25;;;9.45;;
56297;SDS011;42208;6.376;-10.782;2022-11-20T02:20:25;22.25;;;9.95;;
56297;SDS011;42208;6.376;-10.782;2022-11-20T02:23:02;24.85;;;9.85;;
56297;SDS011;42208;6.376;-10.782;2022-11-20T02:25:38;16.15;;;9.45;;
56297;SDS011;42208;6.376;-10.782;2022-11-20T02:28:08;18.63;;;10.02;;
56297;SDS011;42208;6.376;-10.782;2022-11-20T02:30:37;26.60;;;10.65;;
56297;SDS011;42208;6.376;-10.782;2022-11-20T02:33:05;24.65;;;9.88;;
56297;SDS011;42208;6.376;-10.782;2022-11-20T02:38:02;22.30;;;9.80;;
56297;SDS011;42208;6.376;-10.782;2022-11-20T02:40:30;26.98;;;11.23;;
56297;SDS011;42208;6.376;-10.782;2022-11-20T02:42:58;41.30;;;16.63;;
56297;SDS011;42208;6.376;-10.782;2022-11-20T02:45:26;43.40;;;20.70;;
56297;SDS011;42208;6.376;-10.782;2022-11-20T02:47:55;44.53;;;20.63;;
56297;SDS011;42208;6.376;-10.782;2022-11-20T02:50:23;43.60;;;21.13;;
56297;SDS011;42208;6.376;-10.782;2022-11-20T02:52:51;48.70;;;20.75;;
56297;SDS011;42208;6.376;-10.782;2022-11-20T02:55:19;39.22;;;20.13;;
56297;SDS011;42208;6.376;-10.782;2022-11-20T02:57:47;39.60;;;18.92;;
56297;SDS011;42208;6.376;-10.782;2022-11-20T03:00:16;40.22;;;19.88;;
56297;SDS011;42208;6.376;-10.782;2022-11-20T03:02:44;36.85;;;17.55;;
56297;SDS011;42208;6.376;-10.782;2022-11-20T03:05:12;37.28;;;17.83;;
56297;SDS011;42208;6.376;-10.782;2022-11-20T03:07:40;40.30;;;17.50;;
56297;SDS011;42208;6.376;-10.782;2022-11-20T03:10:10;32.58;;;16.13;;
56297;SDS011;42208;6.376;-10.782;2022-11-20T03:12:38;34.25;;;16.48;;
56297;SDS011;42208;6.376;-10.782;2022-11-20T03:15:06;35.53;;;15.48;;
56297;SDS011;42208;6.376;-10.782;2022-11-20T03:17:35;35.88;;;15.48;;
56297;SDS011;42208;6.376;-10.782;2022-11-20T03:20:04;34.17;;;15.43;;
56297;SDS011;42208;6.376;-10.782;2022-11-20T03:22:33;33.38;;;14.35;;
56297;SDS011;42208;6.376;-10.782;2022-11-20T03:25:01;32.67;;;14.32;;
56297;SDS011;42208;6.376;-10.782;2022-11-20T03:27:32;33.08;;;15.02;;
56297;SDS011;42208;6.376;-10.782;2022-11-20T03:30:02;30.05;;;14.10;;
56297;SDS011;42208;6.376;-10.782;2022-11-20T03:32:30;47.42;;;15.82;;
56297;SDS011;42208;6.376;-10.782;2022-11-20T03:34:58;38.22;;;17.08;;
56297;SDS011;42208;6.376;-10.782;2022-11-20T03:37:27;37.72;;;15.38;;
56297;SDS011;42208;6.376;-10.782;2022-11-20T03:39:55;28.63;;;15.82;;
56297;SDS011;42208;6.376;-10.782;2022-11-20T03:42:23;33.20;;;14.95;;
56297;SDS011;42208;6.376;-10.782;2022-11-20T03:44:51;33.35;;;15.23;;
56297;SDS011;42208;6.376;-10.782;2022-11-20T03:47:19;34.85;;;14.30;;
56297;SDS011;42208;6.376;-10.782;2022-11-20T03:49:47;28.70;;;14.50;;
56297;SDS011;42208;6.376;-10.782;2022-11-20T03:52:16;30.15;;;14.82;;
56297;SDS011;42208;6.376;-10.782;2022-11-20T03:54:44;29.73;;;15.07;;
56297;SDS011;42208;6.376;-10.782;2022-11-20T03:57:12;31.88;;;15.60;;
56297;SDS011;42208;6.376;-10.782;2022-11-20T03:59:40;29.02;;;15.95;;
56297;SDS011;42208;6.376;-10.782;2022-11-20T04:02:09;30.98;;;15.85;;
56297;SDS011;42208;6.376;-10.782;2022-11-20T04:04:37;27.90;;;15.25;;
56297;SDS011;42208;6.376;-10.782;2022-11-20T04:07:05;30.42;;;15.20;;
56297;SDS011;42208;6.376;-10.782;2022-11-20T04:09:33;29.40;;;14.52;;
56297;SDS011;42208;6.376;-10.782;2022-11-20T04:12:01;29.48;;;13.57;;
56297;SDS011;42208;6.376;-10.782;2022-11-20T04:14:29;32.58;;;13.00;;
56297;SDS011;42208;6.376;-10.782;2022-11-20T04:16:58;31.13;;;14.88;;
56297;SDS011;42208;6.376;-10.782;2022-11-20T04:19:26;30.25;;;15.27;;
56297;SDS011;42208;6.376;-10.782;2022-11-20T04:21:54;32.17;;;15.63;;
56297;SDS011;42208;6.376;-10.782;2022-11-20T04:24:22;40.47;;;15.45;;
56297;SDS011;42208;6.376;-10.782;2022-11-20T04:26:51;26.58;;;14.68;;
56297;SDS011;42208;6.376;-10.782;2022-11-20T04:29:19;32.58;;;14.75;;
56297;SDS011;42208;6.376;-10.782;2022-11-20T04:31:47;27.95;;;14.10;;
56297;SDS011;42208;6.376;-10.782;2022-11-20T04:34:15;28.50;;;13.23;;
56297;SDS011;42208;6.376;-10.782;2022-11-20T04:36:44;32.35;;;14.05;;
56297;SDS011;42208;6.376;-10.782;2022-11-20T04:39:12;26.10;;;15.32;;
56297;SDS011;42208;6.376;-10.782;2022-11-20T04:41:41;33.83;;;15.73;;
56297;SDS011;42208;6.376;-10.782;2022-11-20T04:44:09;32.15;;;15.13;;
56297;SDS011;42208;6.376;-10.782;2022-11-20T04:46:41;31.08;;;14.40;;
56297;SDS011;42208;6.376;-10.782;2022-11-20T04:49:10;24.80;;;13.70;;
56297;SDS011;42208;6.376;-10.782;2022-11-20T04:51:38;29.80;;;15.30;;
56297;SDS011;42208;6.376;-10.782;2022-11-20T04:54:07;27.70;;;14.35;;
56297;SDS011;42208;6.376;-10.782;2022-11-20T04:56:36;27.20;;;14.50;;
56297;SDS011;42208;6.376;-10.782;2022-11-20T04:59:04;27.20;;;16.13;;
56297;SDS011;42208;6.376;-10.782;2022-11-20T05:01:33;28.40;;;15.63;;
56297;SDS011;42208;6.376;-10.782;2022-11-20T05:04:01;31.70;;;16.55;;
56297;SDS011;42208;6.376;-10.782;2022-11-20T05:06:29;28.75;;;15.15;;
56297;SDS011;42208;6.376;-10.782;2022-11-20T05:08:58;34.13;;;16.05;;
56297;SDS011;42208;6.376;-10.782;2022-11-20T05:11:26;28.15;;;14.23;;
56297;SDS011;42208;6.376;-10.782;2022-11-20T05:13:54;29.27;;;14.10;;
56297;SDS011;42208;6.376;-10.782;2022-11-20T05:16:25;25.80;;;14.20;;
56297;SDS011;42208;6.376;-10.782;2022-11-20T05:18:53;29.35;;;14.48;;
56297;SDS011;42208;6.376;-10.782;2022-11-20T05:21:22;24.33;;;13.30;;
56297;SDS011;42208;6.376;-10.782;2022-11-20T05:23:50;29.33;;;14.98;;
56297;SDS011;42208;6.376;-10.782;2022-11-20T05:26:20;30.55;;;15.77;;
56297;SDS011;42208;6.376;-10.782;2022-11-20T05:28:49;27.65;;;16.60;;
56297;SDS011;42208;6.376;-10.782;2022-11-20T05:31:21;31.95;;;15.68;;
56297;SDS011;42208;6.376;-10.782;2022-11-20T05:33:54;26.83;;;15.68;;
56297;SDS011;42208;6.376;-10.782;2022-11-20T05:36:24;24.58;;;15.40;;
56297;SDS011;42208;6.376;-10.782;2022-11-20T05:38:52;29.35;;;15.15;;
56297;SDS011;42208;6.376;-10.782;2022-11-20T05:41:27;32.00;;;16.58;;
56297;SDS011;42208;6.376;-10.782;2022-11-20T05:43:55;31.70;;;15.40;;
56297;SDS011;42208;6.376;-10.782;2022-11-20T05:46:24;24.90;;;13.90;;
56297;SDS011;42208;6.376;-10.782;2022-11-20T05:48:55;25.83;;;14.13;;
56297;SDS011;42208;6.376;-10.782;2022-11-20T05:51:24;31.80;;;15.10;;
56297;SDS011;42208;6.376;-10.782;2022-11-20T05:53:55;25.35;;;13.93;;
56297;SDS011;42208;6.376;-10.782;2022-11-20T05:56:24;31.85;;;16.23;;
56297;SDS011;42208;6.376;-10.782;2022-11-20T05:58:52;28.35;;;15.43;;
56297;SDS011;42208;6.376;-10.782;2022-11-20T06:01:21;26.10;;;13.90;;
56297;SDS011;42208;6.376;-10.782;2022-11-20T06:03:52;29.38;;;16.67;;
56297;SDS011;42208;6.376;-10.782;2022-11-20T06:06:21;24.40;;;15.20;;
56297;SDS011;42208;6.376;-10.782;2022-11-20T06:08:49;29.92;;;16.25;;
56297;SDS011;42208;6.376;-10.782;2022-11-20T06:11:18;25.85;;;16.42;;
56297;SDS011;42208;6.376;-10.782;2022-11-20T06:13:46;23.80;;;14.60;;
56297;SDS011;42208;6.376;-10.782;2022-11-20T06:16:16;27.92;;;14.38;;
56297;SDS011;42208;6.376;-10.782;2022-11-20T06:18:46;26.48;;;13.50;;
56297;SDS011;42208;6.376;-10.782;2022-11-20T06:21:15;27.50;;;14.90;;
56297;SDS011;42208;6.376;-10.782;2022-11-20T06:23:45;29.10;;;14.88;;
56297;SDS011;42208;6.376;-10.782;2022-11-20T06:26:15;29.48;;;16.02;;
56297;SDS011;42208;6.376;-10.782;2022-11-20T06:28:45;28.73;;;15.77;;
56297;SDS011;42208;6.376;-10.782;2022-11-20T06:31:15;32.50;;;16.05;;
56297;SDS011;42208;6.376;-10.782;2022-11-20T06:33:44;26.15;;;16.05;;
56297;SDS011;42208;6.376;-10.782;2022-11-20T06:36:13;29.90;;;16.33;;
56297;SDS011;42208;6.376;-10.782;2022-11-20T06:38:42;35.35;;;16.13;;
56297;SDS011;42208;6.376;-10.782;2022-11-20T06:41:12;31.52;;;16.02;;
56297;SDS011;42208;6.376;-10.782;2022-11-20T06:43:42;28.63;;;16.58;;
56297;SDS011;42208;6.376;-10.782;2022-11-20T06:46:11;41.22;;;20.45;;
56297;SDS011;42208;6.376;-10.782;2022-11-20T06:48:40;54.00;;;25.30;;
56297;SDS011;42208;6.376;-10.782;2022-11-20T06:51:08;45.85;;;27.25;;
56297;SDS011;42208;6.376;-10.782;2022-11-20T06:53:37;51.47;;;25.35;;
56297;SDS011;42208;6.376;-10.782;2022-11-20T06:56:05;37.50;;;21.10;;
56297;SDS011;42208;6.376;-10.782;2022-11-20T06:58:35;39.50;;;21.35;;
56297;SDS011;42208;6.376;-10.782;2022-11-20T07:01:10;41.40;;;19.88;;
56297;SDS011;42208;6.376;-10.782;2022-11-20T07:03:40;35.60;;;19.40;;
56297;SDS011;42208;6.376;-10.782;2022-11-20T07:06:08;37.38;;;19.85;;
56297;SDS011;42208;6.376;-10.782;2022-11-20T07:08:37;38.13;;;18.80;;
56297;SDS011;42208;6.376;-10.782;2022-11-20T07:11:06;31.75;;;18.92;;
56297;SDS011;42208;6.376;-10.782;2022-11-20T07:13:35;34.65;;;19.33;;
56297;SDS011;42208;6.376;-10.782;2022-11-20T07:16:04;34.75;;;21.73;;
56297;SDS011;42208;6.376;-10.782;2022-11-20T07:18:34;38.20;;;22.63;;
56297;SDS011;42208;6.376;-10.782;2022-11-20T07:21:04;30.55;;;19.08;;
56297;SDS011;42208;6.376;-10.782;2022-11-20T07:23:34;34.30;;;18.90;;
56297;SDS011;42208;6.376;-10.782;2022-11-20T07:26:04;37.03;;;18.55;;
56297;SDS011;42208;6.376;-10.782;2022-11-20T07:28:33;35.50;;;18.10;;
56297;SDS011;42208;6.376;-10.782;2022-11-20T07:31:01;36.35;;;16.98;;
56297;SDS011;42208;6.376;-10.782;2022-11-20T07:33:30;35.85;;;16.73;;
56297;SDS011;42208;6.376;-10.782;2022-11-20T07:35:59;37.83;;;20.77;;
56297;SDS011;42208;6.376;-10.782;2022-11-20T07:38:27;38.45;;;20.33;;
56297;SDS011;42208;6.376;-10.782;2022-11-20T07:40:56;44.47;;;18.67;;
56297;SDS011;42208;6.376;-10.782;2022-11-20T07:43:24;34.35;;;17.85;;
56297;SDS011;42208;6.376;-10.782;2022-11-20T07:45:56;31.98;;;17.73;;
56297;SDS011;42208;6.376;-10.782;2022-11-20T07:48:25;29.27;;;18.92;;
56297;SDS011;42208;6.376;-10.782;2022-11-20T07:50:54;33.92;;;18.88;;
56297;SDS011;42208;6.376;-10.782;2022-11-20T07:53:23;41.03;;;20.17;;
56297;SDS011;42208;6.376;-10.782;2022-11-20T07:56:03;36.70;;;19.33;;
56297;SDS011;42208;6.376;-10.782;2022-11-20T07:58:32;36.88;;;22.50;;
56297;SDS011;42208;6.376;-10.782;2022-11-20T08:01:04;43.17;;;21.92;;
56297;SDS011;42208;6.376;-10.782;2022-11-20T08:03:34;37.70;;;21.23;;
56297;SDS011;42208;6.376;-10.782;2022-11-20T08:06:03;36.78;;;19.77;;
56297;SDS011;42208;6.376;-10.782;2022-11-20T08:08:31;41.15;;;21.05;;
56297;SDS011;42208;6.376;-10.782;2022-11-20T08:11:03;31.17;;;20.42;;
56297;SDS011;42208;6.376;-10.782;2022-11-20T08:13:32;35.53;;;19.48;;
56297;SDS011;42208;6.376;-10.782;2022-11-20T08:16:00;34.97;;;20.77;;
56297;SDS011;42208;6.376;-10.782;2022-11-20T08:18:29;40.83;;;19.55;;
56297;SDS011;42208;6.376;-10.782;2022-11-20T08:21:02;34.05;;;18.98;;
56297;SDS011;42208;6.376;-10.782;2022-11-20T08:23:31;34.70;;;18.92;;
56297;SDS011;42208;6.376;-10.782;2022-11-20T08:25:59;34.22;;;18.58;;
56297;SDS011;42208;6.376;-10.782;2022-11-20T08:28:28;37.35;;;20.67;;
56297;SDS011;42208;6.376;-10.782;2022-11-20T08:31:00;43.58;;;23.27;;
56297;SDS011;42208;6.376;-10.782;2022-11-20T08:33:29;50.20;;;25.60;;
56297;SDS011;42208;6.376;-10.782;2022-11-20T08:35:58;45.67;;;26.05;;
56297;SDS011;42208;6.376;-10.782;2022-11-20T08:38:28;40.72;;;23.48;;
56297;SDS011;42208;6.376;-10.782;2022-11-20T08:40:59;38.05;;;22.17;;
56297;SDS011;42208;6.376;-10.782;2022-11-20T08:43:29;40.10;;;22.02;;
56297;SDS011;42208;6.376;-10.782;2022-11-20T08:45:57;39.28;;;21.25;;
56297;SDS011;42208;6.376;-10.782;2022-11-20T08:48:26;42.33;;;23.58;;
56297;SDS011;42208;6.376;-10.782;2022-11-20T08:50:57;55.50;;;30.13;;
56297;SDS011;42208;6.376;-10.782;2022-11-20T08:53:26;55.88;;;30.35;;
56297;SDS011;42208;6.376;-10.782;2022-11-20T08:55:56;51.47;;;31.33;;
56297;SDS011;42208;6.376;-10.782;2022-11-20T08:58:24;51.65;;;29.23;;
56297;SDS011;42208;6.376;-10.782;2022-11-20T09:00:53;58.58;;;27.23;;
56297;SDS011;42208;6.376;-10.782;2022-11-20T09:03:21;50.40;;;25.73;;
56297;SDS011;42208;6.376;-10.782;2022-11-20T09:05:58;50.22;;;25.88;;
56297;SDS011;42208;6.376;-10.782;2022-11-20T09:08:27;39.58;;;23.20;;
56297;SDS011;42208;6.376;-10.782;2022-11-20T09:10:56;43.40;;;21.83;;
56297;SDS011;42208;6.376;-10.782;2022-11-20T09:13:25;42.78;;;20.45;;
56297;SDS011;42208;6.376;-10.782;2022-11-20T09:18:24;37.00;;;18.27;;
56297;SDS011;42208;6.376;-10.782;2022-11-20T09:20:59;42.95;;;18.70;;
56297;SDS011;42208;6.376;-10.782;2022-11-20T09:23:33;45.50;;;18.90;;
56297;SDS011;42208;6.376;-10.782;2022-11-20T09:26:03;41.10;;;19.33;;
56297;SDS011;42208;6.376;-10.782;2022-11-20T09:28:32;42.13;;;18.55;;
56297;SDS011;42208;6.376;-10.782;2022-11-20T09:31:03;32.95;;;18.30;;
56297;SDS011;42208;6.376;-10.782;2022-11-20T09:33:36;37.08;;;18.95;;
56297;SDS011;42208;6.376;-10.782;2022-11-20T09:36:04;35.22;;;18.60;;
56297;SDS011;42208;6.376;-10.782;2022-11-20T09:38:33;39.25;;;18.67;;
56297;SDS011;42208;6.376;-10.782;2022-11-20T09:55:19;26.35;;;14.95;;
56297;SDS011;42208;6.376;-10.782;2022-11-20T09:57:49;34.55;;;17.58;;
56297;SDS011;42208;6.376;-10.782;2022-11-20T10:00:19;57.65;;;15.57;;
56297;SDS011;42208;6.376;-10.782;2022-11-20T10:02:52;26.25;;;14.57;;
56297;SDS011;42208;6.376;-10.782;2022-11-20T10:05:27;24.17;;;13.57;;
56297;SDS011;42208;6.376;-10.782;2022-11-20T10:08:22;24.60;;;14.80;;
56297;SDS011;42208;6.376;-10.782;2022-11-20T10:10:58;22.85;;;13.20;;
56297;SDS011;42208;6.376;-10.782;2022-11-20T10:19:37;28.25;;;11.90;;
56297;SDS011;42208;6.376;-10.782;2022-11-20T10:25:38;40.78;;;13.45;;
56297;SDS011;42208;6.376;-10.782;2022-11-20T10:28:15;25.20;;;12.13;;
56297;SDS011;42208;6.376;-10.782;2022-11-20T10:31:00;23.58;;;12.60;;
56297;SDS011;42208;6.376;-10.782;2022-11-20T10:33:39;24.77;;;11.30;;
56297;SDS011;42208;6.376;-10.782;2022-11-20T10:36:38;20.77;;;10.63;;
56297;SDS011;42208;6.376;-10.782;2022-11-20T10:39:18;24.90;;;11.70;;
56297;SDS011;42208;6.376;-10.782;2022-11-20T10:41:49;21.58;;;11.10;;
56297;SDS011;42208;6.376;-10.782;2022-11-20T10:44:21;19.40;;;11.10;;
56297;SDS011;42208;6.376;-10.782;2022-11-20T10:46:53;22.85;;;10.77;;
56297;SDS011;42208;6.376;-10.782;2022-11-20T10:49:22;23.25;;;12.05;;
56297;SDS011;42208;6.376;-10.782;2022-11-20T10:51:54;22.25;;;11.32;;
56297;SDS011;42208;6.376;-10.782;2022-11-20T11:00:09;33.08;;;12.98;;
56297;SDS011;42208;6.376;-10.782;2022-11-20T11:02:46;26.02;;;13.00;;
56297;SDS011;42208;6.376;-10.782;2022-11-20T11:08:13;22.65;;;12.32;;
56297;SDS011;42208;6.376;-10.782;2022-11-20T11:10:48;27.10;;;13.18;;
56297;SDS011;42208;6.376;-10.782;2022-11-20T11:13:21;27.02;;;12.43;;
56297;SDS011;42208;6.376;-10.782;2022-11-20T11:15:54;24.92;;;12.55;;
56297;SDS011;42208;6.376;-10.782;2022-11-20T11:18:27;28.52;;;14.48;;
56297;SDS011;42208;6.376;-10.782;2022-11-20T11:20:56;30.85;;;14.00;;
56297;SDS011;42208;6.376;-10.782;2022-11-20T11:23:29;34.47;;;14.13;;
56297;SDS011;42208;6.376;-10.782;2022-11-20T11:26:04;27.90;;;14.10;;
56297;SDS011;42208;6.376;-10.782;2022-11-20T11:28:34;29.33;;;13.70;;
56297;SDS011;42208;6.376;-10.782;2022-11-20T11:31:02;28.33;;;14.90;;
56297;SDS011;42208;6.376;-10.782;2022-11-20T11:33:31;28.25;;;14.13;;
56297;SDS011;42208;6.376;-10.782;2022-11-20T11:36:00;17.40;;;12.27;;
56297;SDS011;42208;6.376;-10.782;2022-11-20T11:38:38;20.38;;;11.02;;
56297;SDS011;42208;6.376;-10.782;2022-11-20T11:41:13;22.48;;;12.50;;
56297;SDS011;42208;6.376;-10.782;2022-11-20T11:43:55;23.52;;;10.77;;
56297;SDS011;42208;6.376;-10.782;2022-11-20T11:46:32;17.92;;;10.38;;
56297;SDS011;42208;6.376;-10.782;2022-11-20T11:51:54;37.38;;;16.02;;
56297;SDS011;42208;6.376;-10.782;2022-11-20T11:57:01;22.35;;;12.93;;
56297;SDS011;42208;6.376;-10.782;2022-11-20T12:05:20;22.92;;;11.88;;
56297;SDS011;42208;6.376;-10.782;2022-11-20T12:08:05;37.38;;;17.85;;
56297;SDS011;42208;6.376;-10.782;2022-11-20T12:14:00;95.07;;;38.05;;
56297;SDS011;42208;6.376;-10.782;2022-11-20T12:16:52;115.47;;;54.22;;
56297;SDS011;42208;6.376;-10.782;2022-11-20T12:19:21;33.28;;;15.23;;
56297;SDS011;42208;6.376;-10.782;2022-11-20T12:25:14;54.05;;;21.30;;
56297;SDS011;42208;6.376;-10.782;2022-11-20T12:30:41;27.27;;;12.68;;
56297;SDS011;42208;6.376;-10.782;2022-11-20T12:41:47;26.58;;;11.00;;
56297;SDS011;42208;6.376;-10.782;2022-11-20T12:50:02;29.45;;;10.10;;
56297;SDS011;42208;6.376;-10.782;2022-11-20T13:00:32;25.38;;;11.27;;
56297;SDS011;42208;6.376;-10.782;2022-11-20T13:08:42;21.27;;;8.18;;
56297;SDS011;42208;6.376;-10.782;2022-11-20T13:19:16;20.80;;;8.40;;
56297;SDS011;42208;6.376;-10.782;2022-11-20T13:21:46;19.45;;;9.82;;
56297;SDS011;42208;6.376;-10.782;2022-11-20T13:27:05;21.93;;;8.37;;
56297;SDS011;42208;6.376;-10.782;2022-11-20T13:29:43;56.03;;;17.63;;
56297;SDS011;42208;6.376;-10.782;2022-11-20T13:34:57;21.88;;;8.85;;
56297;SDS011;42208;6.376;-10.782;2022-11-20T13:40:05;19.73;;;9.77;;
56297;SDS011;42208;6.376;-10.782;2022-11-20T13:45:26;19.60;;;8.98;;
56297;SDS011;42208;6.376;-10.782;2022-11-20T13:47:57;24.48;;;8.68;;
56297;SDS011;42208;6.376;-10.782;2022-11-20T14:02:12;24.35;;;9.30;;
56297;SDS011;42208;6.376;-10.782;2022-11-20T14:04:44;25.77;;;10.25;;
56297;SDS011;42208;6.376;-10.782;2022-11-20T14:07:16;22.67;;;8.23;;
56297;SDS011;42208;6.376;-10.782;2022-11-20T14:09:50;22.20;;;7.63;;
56297;SDS011;42208;6.376;-10.782;2022-11-20T14:12:21;28.98;;;9.32;;
56297;SDS011;42208;6.376;-10.782;2022-11-20T14:14:54;36.65;;;9.55;;
56297;SDS011;42208;6.376;-10.782;2022-11-20T14:17:33;23.38;;;8.48;;
56297;SDS011;42208;6.376;-10.782;2022-11-20T14:20:06;30.92;;;8.35;;
56297;SDS011;42208;6.376;-10.782;2022-11-20T14:22:47;30.58;;;7.78;;
56297;SDS011;42208;6.376;-10.782;2022-11-20T14:25:21;15.13;;;6.60;;
56297;SDS011;42208;6.376;-10.782;2022-11-20T14:27:59;26.15;;;6.68;;
56297;SDS011;42208;6.376;-10.782;2022-11-20T14:30:35;22.20;;;7.18;;
56297;SDS011;42208;6.376;-10.782;2022-11-20T14:33:12;24.42;;;7.75;;
56297;SDS011;42208;6.376;-10.782;2022-11-20T14:35:46;31.48;;;8.48;;
56297;SDS011;42208;6.376;-10.782;2022-11-20T14:38:17;24.08;;;7.30;;
56297;SDS011;42208;6.376;-10.782;2022-11-20T14:40:48;26.25;;;8.25;;
56297;SDS011;42208;6.376;-10.782;2022-11-20T14:43:18;23.95;;;7.18;;
56297;SDS011;42208;6.376;-10.782;2022-11-20T14:45:52;28.60;;;7.40;;
56297;SDS011;42208;6.376;-10.782;2022-11-20T14:51:38;14.40;;;7.40;;
56297;SDS011;42208;6.376;-10.782;2022-11-20T14:54:17;23.77;;;6.75;;
56297;SDS011;42208;6.376;-10.782;2022-11-20T14:56:55;30.02;;;7.70;;
56297;SDS011;42208;6.376;-10.782;2022-11-20T14:59:27;32.53;;;8.57;;
56297;SDS011;42208;6.376;-10.782;2022-11-20T15:02:00;21.83;;;8.50;;
56297;SDS011;42208;6.376;-10.782;2022-11-20T15:04:50;25.90;;;7.85;;
56297;SDS011;42208;6.376;-10.782;2022-11-20T15:07:24;24.17;;;6.85;;
56297;SDS011;42208;6.376;-10.782;2022-11-20T15:10:01;28.90;;;7.65;;
56297;SDS011;42208;6.376;-10.782;2022-11-20T15:12:34;29.88;;;6.75;;
56297;SDS011;42208;6.376;-10.782;2022-11-20T15:18:37;35.53;;;7.65;;
56297;SDS011;42208;6.376;-10.782;2022-11-20T15:21:11;22.65;;;6.75;;
56297;SDS011;42208;6.376;-10.782;2022-11-20T15:23:41;21.40;;;6.40;;
56297;SDS011;42208;6.376;-10.782;2022-11-20T15:26:10;16.63;;;6.38;;
56297;SDS011;42208;6.376;-10.782;2022-11-20T15:28:46;23.17;;;6.50;;
56297;SDS011;42208;6.376;-10.782;2022-11-20T15:31:16;12.55;;;5.72;;
56297;SDS011;42208;6.376;-10.782;2022-11-20T15:33:46;18.00;;;5.97;;
56297;SDS011;42208;6.376;-10.782;2022-11-20T15:36:15;21.73;;;6.65;;
56297;SDS011;42208;6.376;-10.782;2022-11-20T15:38:44;31.42;;;6.97;;
56297;SDS011;42208;6.376;-10.782;2022-11-20T15:41:12;27.05;;;6.82;;
56297;SDS011;42208;6.376;-10.782;2022-11-20T15:43:40;22.65;;;6.50;;
56297;SDS011;42208;6.376;-10.782;2022-11-20T15:46:10;14.48;;;6.05;;
56297;SDS011;42208;6.376;-10.782;2022-11-20T15:48:42;47.72;;;20.95;;
56297;SDS011;42208;6.376;-10.782;2022-11-20T15:51:28;26.20;;;10.50;;
56297;SDS011;42208;6.376;-10.782;2022-11-20T15:54:12;33.97;;;8.48;;
56297;SDS011;42208;6.376;-10.782;2022-11-20T15:56:41;44.20;;;7.55;;
56297;SDS011;42208;6.376;-10.782;2022-11-20T15:59:09;25.65;;;6.38;;
56297;SDS011;42208;6.376;-10.782;2022-11-20T16:01:37;39.63;;;8.70;;
56297;SDS011;42208;6.376;-10.782;2022-11-20T16:04:09;51.47;;;19.20;;
56297;SDS011;42208;6.376;-10.782;2022-11-20T16:06:39;42.05;;;8.25;;
56297;SDS011;42208;6.376;-10.782;2022-11-20T16:09:07;27.27;;;7.47;;
56297;SDS011;42208;6.376;-10.782;2022-11-20T16:11:36;35.55;;;9.45;;
56297;SDS011;42208;6.376;-10.782;2022-11-20T16:14:05;34.88;;;9.77;;
56297;SDS011;42208;6.376;-10.782;2022-11-20T16:16:34;26.27;;;9.50;;
56297;SDS011;42208;6.376;-10.782;2022-11-20T16:19:03;25.08;;;8.50;;
56297;SDS011;42208;6.376;-10.782;2022-11-20T16:21:32;27.75;;;10.35;;
56297;SDS011;42208;6.376;-10.782;2022-11-20T16:24:01;48.95;;;11.70;;
56297;SDS011;42208;6.376;-10.782;2022-11-20T16:26:31;24.70;;;6.50;;
56297;SDS011;42208;6.376;-10.782;2022-11-20T16:29:00;13.65;;;5.78;;
56297;SDS011;42208;6.376;-10.782;2022-11-20T16:31:30;19.65;;;5.57;;
56297;SDS011;42208;6.376;-10.782;2022-11-20T16:33:59;21.23;;;6.43;;
56297;SDS011;42208;6.376;-10.782;2022-11-20T16:36:38;25.90;;;7.57;;
56297;SDS011;42208;6.376;-10.782;2022-11-20T16:39:08;28.43;;;6.63;;